Time;durP1;ratioP1;P1;durP2;ratioP2;P2;SDS_P1;SDS_P2;PMS_P1;PMS_P2;Temp;Humidity;BMP_temperature;BMP_pressure;BME280_temperature;BME280_humidity;BME280_pressure;Samples;Min_cycle;Max_cycle;Signal;HPM_P1;HPM_P2
2021/01/29 00:00:52;;;;;;;13.40;8.25;;;;;;;-1.52;80.81;99990.13;5138258;27;20236;-59
2021/01/29 00:03:20;;;;;;;17.48;8.27;;;;;;;-1.50;80.13;99988.59;5136509;27;20533;-58
2021/01/29 00:05:54;;;;;;;14.35;7.80;;;;;;;-1.71;80.56;99986.91;5138034;27;20509;-58
2021/01/29 00:08:23;;;;;;;16.85;8.32;;;;;;;-1.73;80.59;99984.28;5136535;27;20245;-58
2021/01/29 00:10:50;;;;;;;14.60;7.60;;;;;;;-1.81;80.99;99970.13;5138257;27;20210;-57
2021/01/29 00:13:17;;;;;;;17.17;8.52;;;;;;;-1.82;80.75;99964.19;5136587;27;20323;-58
2021/01/29 00:15:44;;;;;;;16.15;7.57;;;;;;;-1.77;80.61;99962.91;5136405;27;20225;-58
2021/01/29 00:18:12;;;;;;;17.92;7.85;;;;;;;-1.86;81.08;99961.31;5136274;27;20267;-59
2021/01/29 00:20:39;;;;;;;12.88;7.20;;;;;;;-1.85;80.75;99953.81;5138109;27;20198;-56
2021/01/29 00:23:07;;;;;;;14.40;7.93;;;;;;;-1.77;80.88;99957.84;5135956;27;20321;-58
2021/01/29 00:25:36;;;;;;;12.65;7.00;;;;;;;-1.60;80.51;99963.31;5137457;27;20252;-58
2021/01/29 00:28:04;;;;;;;14.48;7.10;;;;;;;-1.57;80.33;99961.03;5136429;27;20253;-60
2021/01/29 00:30:31;;;;;;;15.18;7.25;;;;;;;-1.60;80.11;99963.31;5137712;27;20199;-59
2021/01/29 00:32:58;;;;;;;11.10;6.80;;;;;;;-1.73;80.43;99960.59;5135861;27;20226;-59
2021/01/29 00:35:27;;;;;;;15.90;7.72;;;;;;;-1.79;80.63;99959.34;5137398;27;20313;-58
2021/01/29 00:37:54;;;;;;;15.05;7.25;;;;;;;-1.85;80.63;99958.88;5135793;27;20236;-58
2021/01/29 00:40:21;;;;;;;15.10;7.65;;;;;;;-1.81;81.12;99955.84;5137606;27;20203;-58
2021/01/29 00:42:49;;;;;;;14.75;7.68;;;;;;;-1.82;80.38;99955.69;5136247;27;20295;-57
2021/01/29 00:45:18;;;;;;;12.25;6.45;;;;;;;-1.77;80.17;99949.38;5137238;27;20227;-58
2021/01/29 00:47:45;;;;;;;12.55;6.55;;;;;;;-1.79;80.32;99959.34;5135388;27;20326;-59
2021/01/29 00:50:12;;;;;;;14.95;6.75;;;;;;;-1.67;80.44;99961.97;5137369;27;20247;-58
2021/01/29 00:52:39;;;;;;;15.50;7.00;;;;;;;-1.65;79.78;99959.53;5135851;27;20240;-57
2021/01/29 00:55:07;;;;;;;14.15;7.05;;;;;;;-1.69;80.30;99949.97;5136880;27;20316;-57
2021/01/29 00:57:35;;;;;;;17.00;6.13;;;;;;;-1.80;80.25;99952.53;5135662;27;20647;-57
2021/01/29 01:00:04;;;;;;;13.50;6.65;;;;;;;-1.74;80.42;99946.19;5137023;27;20626;-56
2021/01/29 01:02:31;;;;;;;10.55;6.15;;;;;;;-1.72;80.20;99929.47;5135695;27;20654;-59
2021/01/29 01:04:58;;;;;;;12.82;5.05;;;;;;;-1.78;80.63;99925.69;5136602;27;20217;-56
2021/01/29 01:07:24;;;;;;;10.95;5.90;;;;;;;-1.80;80.48;99919.66;5135079;27;20242;-55
2021/01/29 01:09:51;;;;;;;11.30;6.25;;;;;;;-1.81;80.80;99915.38;5135835;27;20600;-59
2021/01/29 01:12:18;;;;;;;11.65;5.90;;;;;;;-1.83;80.82;99901.72;5135582;27;20230;-58
2021/01/29 01:14:46;;;;;;;9.32;5.85;;;;;;;-1.77;80.90;99897.13;5136883;27;20225;-58
2021/01/29 01:17:12;;;;;;;11.07;5.75;;;;;;;-1.74;80.62;99888.91;5135213;28;20241;-59
2021/01/29 01:19:39;;;;;;;14.80;6.30;;;;;;;-1.75;80.54;99891.31;5137080;28;20209;-57
2021/01/29 01:22:06;;;;;;;11.80;5.90;;;;;;;-1.83;80.48;99893.25;5135179;28;20214;-58
2021/01/29 01:24:39;;;;;;;9.45;5.88;;;;;;;-1.70;80.04;99885.84;5136812;27;20596;-57
2021/01/29 01:27:07;;;;;;;10.57;5.25;;;;;;;-1.73;80.63;99878.03;5135857;27;20218;-57
2021/01/29 01:29:34;;;;;;;11.00;5.38;;;;;;;-1.75;80.41;99873.59;5141284;27;20583;-56
2021/01/29 01:32:02;;;;;;;10.82;5.65;;;;;;;-1.83;80.61;99871.38;5139080;27;20289;-56
2021/01/29 01:34:29;;;;;;;12.20;4.70;;;;;;;-1.81;80.40;99867.31;5140639;27;20226;-58
2021/01/29 01:36:55;;;;;;;11.60;5.80;;;;;;;-1.79;80.61;99875.88;5138572;27;20309;-58
2021/01/29 01:39:22;;;;;;;13.98;5.50;;;;;;;-1.79;80.36;99873.34;5140828;27;20640;-59
2021/01/29 01:41:51;;;;;;;10.93;5.15;;;;;;;-1.79;81.11;99872.50;5139629;27;20199;-60
2021/01/29 01:44:27;;;;;;;10.88;4.97;;;;;;;-1.72;80.70;99863.72;5140476;27;20309;-58
2021/01/29 01:46:55;;;;;;;11.07;5.05;;;;;;;-1.72;80.31;99853.59;5138353;27;20225;-59
2021/01/29 01:49:25;;;;;;;7.80;3.97;;;;;;;-1.70;80.39;99847.03;5140692;27;20537;-58
2021/01/29 01:51:56;;;;;;;8.75;4.13;;;;;;;-1.73;80.21;99851.84;5139609;27;20551;-58
2021/01/29 01:54:29;;;;;;;11.38;4.82;;;;;;;-1.78;80.68;99844.75;5119669;27;20603;-59
2021/01/29 01:56:58;;;;;;;8.05;4.32;;;;;;;-1.72;80.41;99853.59;5116648;28;20535;-58
2021/01/29 01:59:29;;;;;;;9.30;4.60;;;;;;;-1.60;79.74;99846.06;5118254;28;20289;-56
2021/01/29 02:01:56;;;;;;;9.80;4.10;;;;;;;-1.70;79.97;99844.50;5116841;28;20195;-58
2021/01/29 02:04:26;;;;;;;8.88;3.70;;;;;;;-1.74;80.23;99827.31;5118140;28;20318;-58
2021/01/29 02:06:57;;;;;;;8.82;4.18;;;;;;;-1.60;79.81;99831.75;5117148;28;20219;-56
2021/01/29 02:09:25;;;;;;;7.88;3.88;;;;;;;-1.54;79.84;99822.09;5133910;27;20227;-59
2021/01/29 02:11:52;;;;;;;6.72;3.63;;;;;;;-1.54;79.74;99817.03;5139573;27;20195;-58
2021/01/29 02:14:19;;;;;;;7.47;3.90;;;;;;;-1.70;79.87;99816.66;5140012;27;20230;-58
2021/01/29 02:16:51;;;;;;;8.07;3.80;;;;;;;-1.67;79.99;99807.66;5140654;27;20507;-58
2021/01/29 02:19:54;;;;;;;13.27;3.92;;;;;;;-1.69;80.22;99804.09;5140044;27;20309;-57
2021/01/29 02:22:53;;;;;;;10.88;4.00;;;;;;;-1.78;80.42;99804.28;5134541;27;20237;-59
2021/01/29 02:25:48;;;;;;;11.40;3.67;;;;;;;-1.81;80.12;99798.13;5139530;27;20564;-58
2021/01/29 02:28:31;;;;;;;8.65;3.80;;;;;;;-1.77;80.28;99795.97;5138398;27;20234;-57
2021/01/29 02:31:15;;;;;;;9.30;3.83;;;;;;;-1.76;80.07;99789.25;5140044;27;20205;-59
2021/01/29 02:34:14;;;;;;;8.07;4.32;;;;;;;-1.81;80.16;99778.78;5138277;27;20238;-60
2021/01/29 02:37:40;;;;;;;11.68;4.53;;;;;;;-1.68;79.92;99774.66;5139770;27;20254;-58
2021/01/29 02:40:17;;;;;;;6.85;3.45;;;;;;;-1.66;79.66;99766.41;5138678;27;20574;-59
2021/01/29 02:42:52;;;;;;;9.52;3.53;;;;;;;-1.72;80.08;99773.53;5138022;27;20241;-59
2021/01/29 02:45:24;;;;;;;5.70;2.90;;;;;;;-1.79;80.12;99759.53;5139547;27;20194;-59
2021/01/29 02:47:56;;;;;;;7.63;3.50;;;;;;;-1.79;80.02;99746.88;5138148;27;20231;-58
2021/01/29 02:50:31;;;;;;;9.77;3.35;;;;;;;-1.82;79.78;99745.78;5139993;27;20580;-60
2021/01/29 02:53:02;;;;;;;11.43;3.55;;;;;;;-1.76;80.16;99738.66;5138031;27;20230;-59
2021/01/29 02:55:33;;;;;;;7.18;2.92;;;;;;;-1.84;80.00;99738.06;5139302;27;20218;-57
2021/01/29 02:58:05;;;;;;;7.10;3.53;;;;;;;-1.71;79.98;99736.47;5138093;27;20256;-58
2021/01/29 03:00:37;;;;;;;6.45;3.08;;;;;;;-1.84;80.07;99727.09;5139381;27;20209;-58
2021/01/29 03:03:09;;;;;;;16.95;3.65;;;;;;;-1.86;80.16;99726.09;5137596;27;20548;-57
2021/01/29 03:05:39;;;;;;;11.77;3.13;;;;;;;-1.81;79.79;99715.56;5139234;27;20281;-59
2021/01/29 03:08:11;;;;;;;9.73;2.60;;;;;;;-1.95;80.01;99706.06;5137660;27;20234;-58
2021/01/29 03:10:42;;;;;;;6.70;2.90;;;;;;;-1.75;79.34;99711.72;5139209;27;20203;-58
2021/01/29 03:13:11;;;;;;;9.50;3.80;;;;;;;-1.79;79.65;99706.41;5137431;27;20570;-58
2021/01/29 03:15:42;;;;;;;5.55;2.50;;;;;;;-1.84;79.42;99704.34;5138772;27;20224;-58
2021/01/29 03:18:14;;;;;;;8.90;2.70;;;;;;;-1.81;79.84;99707.06;5137673;27;20384;-56
2021/01/29 03:20:45;;;;;;;6.25;2.60;;;;;;;-1.84;79.56;99707.72;5139279;27;20513;-59
2021/01/29 03:23:16;;;;;;;11.80;2.95;;;;;;;-1.70;79.40;99705.38;5137389;27;20234;-57
2021/01/29 03:25:46;;;;;;;5.90;2.47;;;;;;;-1.65;79.22;99704.03;5138820;27;20484;-59
2021/01/29 03:28:16;;;;;;;10.27;2.58;;;;;;;-1.61;79.30;99695.91;5137524;27;20238;-59
2021/01/29 03:30:46;;;;;;;7.88;2.95;;;;;;;-1.71;78.94;99698.50;5138805;27;20205;-59
2021/01/29 03:33:15;;;;;;;7.25;2.88;;;;;;;-1.70;79.34;99678.41;5136765;27;20671;-57
2021/01/29 03:35:44;;;;;;;7.65;2.80;;;;;;;-1.69;79.14;99676.75;5137820;27;20222;-59
2021/01/29 03:38:18;;;;;;;4.97;2.55;;;;;;;-1.68;78.74;99670.94;5137169;27;20231;-59
2021/01/29 03:40:51;;;;;;;9.15;2.90;;;;;;;-1.68;79.03;99668.41;5138902;27;20596;-58
2021/01/29 03:43:23;;;;;;;10.57;2.90;;;;;;;-1.61;79.09;99675.66;5137120;27;20242;-59
2021/01/29 03:45:58;;;;;;;7.85;2.42;;;;;;;-1.62;79.00;99656.19;5138317;27;20202;-59
2021/01/29 03:48:28;;;;;;;7.40;2.67;;;;;;;-1.72;78.81;99656.28;5136896;27;20743;-58
2021/01/29 03:50:59;;;;;;;10.90;3.08;;;;;;;-1.71;79.16;99642.88;5138517;27;20549;-59
2021/01/29 03:53:31;;;;;;;6.90;2.40;;;;;;;-1.65;78.95;99633.19;5136800;27;20238;-56
2021/01/29 03:56:07;;;;;;;6.15;2.58;;;;;;;-1.60;78.93;99636.09;5138029;27;20278;-59
2021/01/29 03:58:39;;;;;;;7.50;2.50;;;;;;;-1.64;79.03;99629.91;5136789;27;20659;-59
2021/01/29 04:01:14;;;;;;;5.80;2.42;;;;;;;-1.70;79.66;99626.94;5138326;27;20245;-58
2021/01/29 04:03:45;;;;;;;8.77;2.60;;;;;;;-1.67;79.46;99629.69;5136864;27;20547;-58
2021/01/29 04:06:16;;;;;;;7.15;2.70;;;;;;;-1.60;79.06;99626.81;5137963;27;20228;-58
2021/01/29 04:08:47;;;;;;;7.10;2.60;;;;;;;-1.66;79.51;99631.44;5136560;27;20266;-57
2021/01/29 04:11:18;;;;;;;5.82;2.40;;;;;;;-1.62;79.38;99623.31;5138274;27;20207;-57
2021/01/29 04:13:47;;;;;;;9.95;2.63;;;;;;;-1.61;79.38;99609.88;5136610;27;20528;-59
2021/01/29 04:16:17;;;;;;;6.40;2.30;;;;;;;-1.66;79.34;99601.09;5137648;27;20237;-59
2021/01/29 04:18:46;;;;;;;9.82;2.67;;;;;;;-1.67;79.63;99597.69;5136291;27;20238;-59
2021/01/29 04:21:17;;;;;;;5.25;2.50;;;;;;;-1.62;79.37;99587.91;5137687;27;20209;-56
2021/01/29 04:23:49;;;;;;;8.05;2.10;;;;;;;-1.56;78.91;99592.50;5136174;27;20234;-57
2021/01/29 04:26:20;;;;;;;6.20;2.45;;;;;;;-1.64;79.19;99579.31;5137613;27;20267;-58
2021/01/29 04:28:49;;;;;;;7.28;2.50;;;;;;;-1.68;79.38;99577.34;5136044;27;20238;-59
2021/01/29 04:31:18;;;;;;;6.65;2.90;;;;;;;-1.67;79.23;99568.97;5137592;27;20619;-59
2021/01/29 04:33:48;;;;;;;7.47;2.60;;;;;;;-1.60;78.98;99566.09;5135989;27;20237;-59
2021/01/29 04:36:16;;;;;;;7.93;3.40;;;;;;;-1.66;78.86;99564.03;5137393;27;20570;-58
2021/01/29 04:38:45;;;;;;;7.25;3.30;;;;;;;-1.67;79.22;99559.75;5135884;27;20265;-59
2021/01/29 04:41:33;;;;;;;4.90;2.45;;;;;;;-1.53;78.49;99567.44;5137849;27;20509;-57
2021/01/29 04:44:17;;;;;;;6.60;2.90;;;;;;;-1.71;78.70;99564.44;5135605;27;20249;-58
2021/01/29 04:47:09;;;;;;;6.80;2.97;;;;;;;-1.75;79.12;99552.38;5137791;27;20222;-59
2021/01/29 04:49:45;;;;;;;5.80;3.20;;;;;;;-1.68;79.12;99541.94;5137078;27;20279;-59
2021/01/29 04:52:55;;;;;;;6.35;3.05;;;;;;;-1.64;78.82;99534.66;5135419;27;20257;-59
2021/01/29 04:55:36;;;;;;;4.10;2.20;;;;;;;-1.66;78.98;99528.63;5137077;27;20313;-59
2021/01/29 04:58:05;;;;;;;9.57;3.20;;;;;;;-1.70;78.86;99523.25;5135966;27;20241;-58
2021/01/29 05:01:01;;;;;;;7.28;3.25;;;;;;;-1.79;79.36;99511.69;5137200;27;20600;-59
2021/01/29 05:03:51;;;;;;;7.50;2.92;;;;;;;-1.92;79.97;99509.03;5127908;27;20628;-57
2021/01/29 05:06:26;;;;;;;7.63;3.45;;;;;;;-1.83;79.46;99497.06;5137011;27;20222;-59
2021/01/29 05:09:20;;;;;;;6.90;2.80;;;;;;;-1.74;79.44;99490.91;5135569;27;20233;-59
2021/01/29 05:11:59;;;;;;;7.90;3.30;;;;;;;-1.75;79.09;99479.88;5137209;27;20202;-58
2021/01/29 05:14:59;;;;;;;9.20;3.22;;;;;;;-1.83;79.44;99471.78;5136441;27;20313;-57
2021/01/29 05:17:41;;;;;;;7.68;3.20;;;;;;;-1.82;79.32;99465.94;5075929;28;20226;-57
2021/01/29 05:20:15;;;;;;;8.82;3.10;;;;;;;-1.86;79.15;99456.38;5136813;28;20199;-58
2021/01/29 05:22:52;;;;;;;12.20;3.15;;;;;;;-1.89;79.25;99461.25;5135530;28;20229;-58
2021/01/29 05:25:57;;;;;;;7.38;3.08;;;;;;;-1.88;79.57;99454.50;5136768;28;20217;-57
2021/01/29 05:28:34;;;;;;;5.75;2.35;;;;;;;-1.99;79.93;99452.13;5135379;28;20317;-58
2021/01/29 05:31:29;;;;;;;7.65;3.40;;;;;;;-1.91;79.83;99453.53;5137223;28;20310;-58
2021/01/29 05:34:24;;;;;;;7.78;2.75;;;;;;;-1.94;79.62;99455.84;5134641;28;20241;-58
2021/01/29 05:37:04;;;;;;;11.48;3.38;;;;;;;-1.87;79.63;99448.69;5135579;28;20309;-59
2021/01/29 05:39:42;;;;;;;9.35;2.70;;;;;;;-1.85;79.01;99454.75;5136972;28;20200;-58
2021/01/29 05:42:22;;;;;;;6.75;3.08;;;;;;;-1.92;79.07;99450.91;5134809;28;20283;-59
2021/01/29 05:45:00;;;;;;;8.20;2.75;;;;;;;-1.82;78.66;99448.25;5136622;28;20221;-58
2021/01/29 05:47:43;;;;;;;7.35;2.58;;;;;;;-1.97;78.33;99439.56;5135320;27;20312;-58
2021/01/29 05:50:19;;;;;;;8.77;2.33;;;;;;;-1.98;78.62;99426.06;5136701;28;20206;-59
2021/01/29 05:53:02;;;;;;;6.95;3.22;;;;;;;-2.00;78.52;99422.53;5135656;27;20229;-58
2021/01/29 05:55:37;;;;;;;3.75;2.22;;;;;;;-1.99;79.00;99414.19;5136648;28;20219;-58
2021/01/29 05:58:23;;;;;;;15.30;4.68;;;;;;;-1.96;79.62;99410.97;5135106;27;20230;-57
2021/01/29 06:01:00;;;;;;;23.05;8.20;;;;;;;-1.90;79.21;99398.78;5136554;28;20213;-57
2021/01/29 06:03:48;;;;;;;13.27;3.45;;;;;;;-1.90;79.41;99388.66;5135202;27;20248;-57
2021/01/29 06:06:33;;;;;;;14.50;5.93;;;;;;;-1.85;78.50;99384.81;5136232;28;20211;-58
2021/01/29 06:09:11;;;;;;;20.20;7.15;;;;;;;-1.81;79.21;99394.38;5135064;27;20234;-59
2021/01/29 06:11:43;;;;;;;8.73;3.85;;;;;;;-1.82;78.53;99390.09;5137025;28;20198;-58
2021/01/29 06:14:49;;;;;;;16.58;5.57;;;;;;;-1.77;78.37;99398.88;5135480;27;20234;-59
2021/01/29 06:17:44;;;;;;;15.85;3.92;;;;;;;-1.88;78.18;99392.19;5138848;27;20230;-56
2021/01/29 06:20:43;;;;;;;9.38;2.60;;;;;;;-1.89;77.64;99395.50;5140508;27;20214;-57
2021/01/29 06:23:32;;;;;;;10.25;3.30;;;;;;;-1.84;78.03;99390.75;5128788;27;20244;-55
2021/01/29 06:26:05;;;;;;;9.25;2.55;;;;;;;-1.84;77.39;99394.13;5139830;27;20219;-59
2021/01/29 06:29:05;;;;;;;6.20;2.53;;;;;;;-1.80;77.38;99386.00;5138641;27;20234;-58
2021/01/29 06:32:22;;;;;;;4.72;1.90;;;;;;;-1.84;77.65;99376.44;5138719;27;20314;-58
2021/01/29 06:35:02;;;;;;;7.00;2.75;;;;;;;-1.70;77.74;99371.47;5139211;27;20219;-58
2021/01/29 06:37:35;;;;;;;6.03;2.10;;;;;;;-1.83;76.69;99364.69;5138417;27;20234;-58
2021/01/29 06:40:07;;;;;;;5.95;1.60;;;;;;;-1.97;77.30;99351.06;5140002;27;20199;-58
2021/01/29 06:42:45;;;;;;;5.40;1.65;;;;;;;-1.90;77.20;99350.72;5138055;27;20244;-58
2021/01/29 06:45:22;;;;;;;5.03;1.80;;;;;;;-2.07;77.64;99350.44;5139661;27;20520;-57
2021/01/29 06:48:29;;;;;;;5.10;1.90;;;;;;;-1.88;77.30;99341.63;5138224;27;20226;-58
2021/01/29 06:51:15;;;;;;;4.43;1.48;;;;;;;-1.86;77.09;99339.19;5139797;27;20226;-58
2021/01/29 06:53:57;;;;;;;3.63;1.55;;;;;;;-1.81;76.66;99332.78;5086584;27;20242;-58
2021/01/29 06:56:59;;;;;;;6.13;1.90;;;;;;;-1.83;76.40;99325.13;5139473;27;20532;-57
2021/01/29 06:59:37;;;;;;;5.95;1.85;;;;;;;-1.87;76.62;99333.25;5138852;27;20638;-59
2021/01/29 07:02:47;;;;;;;3.30;1.42;;;;;;;-1.79;76.35;99322.00;5138156;27;20213;-59
2021/01/29 07:05:25;;;;;;;13.20;1.77;;;;;;;-1.80;76.80;99315.19;5139123;27;20252;-59
2021/01/29 07:08:00;;;;;;;5.60;2.00;;;;;;;-1.82;76.27;99311.69;5138328;27;20271;-58
2021/01/29 07:10:49;;;;;;;8.15;2.33;;;;;;;-1.86;76.36;99299.59;5139513;27;20289;-57
2021/01/29 07:13:39;;;;;;;10.45;2.78;;;;;;;-1.83;76.00;99294.75;5137839;27;20234;-58
2021/01/29 07:16:18;;;;;;;4.05;1.90;;;;;;;-1.77;75.76;99290.13;5135456;27;20624;-59
2021/01/29 07:18:57;;;;;;;7.03;1.77;;;;;;;-1.91;76.04;99294.25;5137573;27;20231;-59
2021/01/29 07:21:33;;;;;;;4.40;1.65;;;;;;;-1.86;75.67;99294.53;5139160;27;20197;-57
2021/01/29 07:24:10;;;;;;;4.45;1.45;;;;;;;-1.83;74.67;99282.13;5137202;27;20324;-58
2021/01/29 07:26:48;;;;;;;6.70;1.80;;;;;;;-1.79;75.02;99281.53;5138567;27;20211;-55
2021/01/29 07:29:24;;;;;;;7.10;1.65;;;;;;;-1.83;74.71;99287.19;5138509;27;20538;-56
2021/01/29 07:31:58;;;;;;;5.35;1.67;;;;;;;-1.78;74.41;99283.28;5136734;27;20616;-58
2021/01/29 07:34:31;;;;;;;4.47;1.52;;;;;;;-1.82;73.67;99271.22;5138399;27;20232;-59
2021/01/29 07:37:16;;;;;;;6.35;1.65;;;;;;;-1.80;73.71;99263.75;5136421;27;20219;-57
2021/01/29 07:39:59;;;;;;;4.70;1.65;;;;;;;-1.75;73.19;99261.53;5138825;27;20203;-58
2021/01/29 07:42:42;;;;;;;3.40;1.55;;;;;;;-1.84;73.14;99261.78;5137270;27;20235;-59
2021/01/29 07:45:30;;;;;;;4.72;1.50;;;;;;;-1.84;72.33;99267.69;5138130;27;20207;-58
2021/01/29 07:48:25;;;;;;;4.10;1.40;;;;;;;-1.70;71.77;99257.66;5136893;27;20234;-59
2021/01/29 07:50:56;;;;;;;6.00;1.40;;;;;;;-1.68;71.90;99256.97;5138651;27;20198;-58
2021/01/29 07:53:29;;;;;;;3.35;1.45;;;;;;;-1.71;71.37;99258.41;5136714;27;20241;-58
2021/01/29 07:56:09;;;;;;;8.55;1.67;;;;;;;-1.56;71.90;99254.38;5138192;27;20230;-58
2021/01/29 07:58:41;;;;;;;7.38;2.15;;;;;;;-1.67;71.23;99250.25;5136983;27;20242;-59
2021/01/29 08:01:30;;;;;;;6.20;1.45;;;;;;;-1.68;70.90;99258.63;5137884;27;20203;-57
2021/01/29 08:04:24;;;;;;;5.97;2.10;;;;;;;-1.62;70.51;99259.03;5136236;27;20245;-59
2021/01/29 08:06:57;;;;;;;9.35;1.60;;;;;;;-1.60;69.73;99249.88;5136868;27;20247;-59
2021/01/29 08:09:27;;;;;;;4.05;1.40;;;;;;;-1.63;68.49;99247.16;5138140;27;20239;-59
2021/01/29 08:11:56;;;;;;;3.78;1.38;;;;;;;-1.70;68.66;99250.06;5136657;27;20199;-59
2021/01/29 08:14:54;;;;;;;11.18;1.88;;;;;;;-1.74;69.14;99243.03;5137604;27;20309;-59
2021/01/29 08:17:58;;;;;;;6.35;1.95;;;;;;;-1.60;69.27;99236.38;5136425;27;20234;-58
2021/01/29 08:20:32;;;;;;;5.18;1.73;;;;;;;-1.70;67.92;99234.91;5137774;27;20290;-57
2021/01/29 08:23:13;;;;;;;7.88;1.63;;;;;;;-1.74;67.98;99227.88;5136423;27;20234;-59
2021/01/29 08:25:54;;;;;;;5.68;1.63;;;;;;;-1.59;68.18;99226.34;5137136;27;20281;-59
2021/01/29 08:28:56;;;;;;;8.82;1.60;;;;;;;-1.54;68.29;99227.50;5136259;27;20230;-59
2021/01/29 08:31:44;;;;;;;3.55;1.30;;;;;;;-1.56;67.76;99215.53;5099521;27;20256;-59
2021/01/29 08:34:32;;;;;;;3.40;0.85;;;;;;;-1.62;67.39;99216.03;5135862;27;20249;-59
2021/01/29 08:37:33;;;;;;;7.03;1.70;;;;;;;-1.47;67.63;99212.72;5135177;27;20632;-59
2021/01/29 08:40:09;;;;;;;3.95;1.40;;;;;;;-1.46;68.00;99200.19;5034677;28;20503;-58
2021/01/29 08:42:48;;;;;;;4.85;1.52;;;;;;;-1.49;67.18;99202.50;5124084;27;20234;-58
2021/01/29 08:45:24;;;;;;;6.90;2.10;;;;;;;-1.45;67.38;99196.03;5137094;27;20202;-59
2021/01/29 08:48:13;;;;;;;5.57;1.80;;;;;;;-1.46;67.61;99197.66;5135582;27;20342;-59
2021/01/29 08:50:50;;;;;;;4.85;1.80;;;;;;;-1.45;67.29;99206.16;5137610;27;20287;-58
2021/01/29 08:53:40;;;;;;;6.05;1.48;;;;;;;-1.32;66.35;99201.09;5135629;27;20589;-59
2021/01/29 08:56:12;;;;;;;4.88;1.80;;;;;;;-1.28;65.69;99200.50;5137101;27;20233;-59
2021/01/29 08:58:46;;;;;;;5.95;1.55;;;;;;;-1.19;65.93;99191.75;5135853;27;20238;-60
2021/01/29 09:01:17;;;;;;;6.90;2.45;;;;;;;-1.28;65.47;99195.44;5137334;27;20211;-59
2021/01/29 09:03:55;;;;;;;5.95;2.80;;;;;;;-1.23;65.96;99191.53;5135501;27;20239;-58
2021/01/29 09:06:24;;;;;;;5.63;1.98;;;;;;;-1.31;65.89;99194.34;5137336;27;20530;-58
2021/01/29 09:08:57;;;;;;;7.50;2.92;;;;;;;-1.34;65.05;99200.09;5135614;27;20296;-58
2021/01/29 09:11:29;;;;;;;7.88;1.95;;;;;;;-1.36;64.30;99194.06;5137411;27;20198;-58
2021/01/29 09:13:58;;;;;;;5.65;1.55;;;;;;;-1.37;64.17;99189.78;5135562;27;20246;-58
2021/01/29 09:16:27;;;;;;;4.43;1.60;;;;;;;-1.30;64.76;99202.06;5137097;27;20223;-55
2021/01/29 09:19:01;;;;;;;5.93;1.63;;;;;;;-1.33;63.66;99185.81;5135420;28;20307;-57
2021/01/29 09:21:34;;;;;;;4.55;1.50;;;;;;;-1.26;63.66;99186.31;5137350;28;20203;-58
2021/01/29 09:24:08;;;;;;;7.80;1.65;;;;;;;-1.22;63.46;99185.69;5134888;28;20248;-58
2021/01/29 09:26:40;;;;;;;5.35;1.67;;;;;;;-1.23;62.36;99186.47;5136958;28;20269;-59
2021/01/29 09:29:16;;;;;;;4.05;1.65;;;;;;;-1.00;62.82;99183.66;5135356;28;20310;-60
2021/01/29 09:31:44;;;;;;;5.13;1.80;;;;;;;-1.06;61.88;99183.25;5137113;28;20222;-57
2021/01/29 09:34:17;;;;;;;7.05;1.40;;;;;;;-1.11;61.96;99188.94;5134720;28;20674;-60
2021/01/29 09:36:50;;;;;;;4.70;1.58;;;;;;;-1.14;62.00;99177.72;5136887;28;20234;-59
2021/01/29 09:39:39;;;;;;;4.15;1.35;;;;;;;-1.11;61.81;99180.44;5135176;28;20214;-57
2021/01/29 09:42:08;;;;;;;6.47;1.60;;;;;;;-1.03;61.62;99176.72;5134690;28;20199;-59
2021/01/29 09:44:38;;;;;;;7.32;1.65;;;;;;;-1.09;61.43;99183.94;5136524;28;20198;-59
2021/01/29 09:47:05;;;;;;;5.43;1.45;;;;;;;-1.10;61.22;99175.50;5135088;28;20211;-58
2021/01/29 09:49:35;;;;;;;7.18;2.08;;;;;;;-1.10;62.08;99179.66;5139834;27;20608;-59
2021/01/29 09:52:07;;;;;;;4.10;1.65;;;;;;;-0.86;61.68;99184.50;5133612;27;20436;-59
2021/01/29 09:54:43;;;;;;;3.40;1.42;;;;;;;-0.80;61.35;99184.91;5136878;27;20575;-58
2021/01/29 09:57:12;;;;;;;4.78;1.23;;;;;;;-0.90;60.93;99182.56;5138888;27;20253;-59
2021/01/29 09:59:44;;;;;;;11.10;3.28;;;;;;;-0.83;61.27;99175.44;5140369;27;20207;-57
2021/01/29 10:02:20;;;;;;;6.25;2.00;;;;;;;-0.88;60.42;99183.56;5137789;27;20231;-60
2021/01/29 10:05:11;;;;;;;6.50;1.98;;;;;;;-0.88;60.90;99181.03;5140322;27;20506;-55
2021/01/29 10:07:42;;;;;;;5.25;1.58;;;;;;;-1.04;60.97;99179.19;5123681;27;20240;-52
2021/01/29 10:10:13;;;;;;;4.28;1.50;;;;;;;-1.02;61.04;99178.47;5139845;27;20289;-56
2021/01/29 10:12:44;;;;;;;6.22;1.73;;;;;;;-0.92;61.42;99174.84;5138355;27;20238;-54
2021/01/29 10:15:16;;;;;;;4.03;1.98;;;;;;;-0.87;60.69;99173.50;5139969;27;20528;-56
2021/01/29 10:17:46;;;;;;;5.93;1.20;;;;;;;-0.79;60.45;99170.56;5138194;27;20241;-54
2021/01/29 10:20:22;;;;;;;9.50;1.92;;;;;;;-0.84;60.34;99178.75;5139966;27;20207;-55
2021/01/29 10:22:58;;;;;;;4.15;1.50;;;;;;;-0.61;61.42;99168.28;5138746;27;20636;-57
2021/01/29 10:25:29;;;;;;;4.38;1.35;;;;;;;-0.27;61.43;99157.63;5139866;27;20277;-56
2021/01/29 10:28:17;;;;;;;10.93;2.38;;;;;;;-0.08;59.99;99168.88;5138166;27;20321;-58
2021/01/29 10:30:47;;;;;;;7.50;1.20;;;;;;;-0.15;59.80;99162.56;5139288;27;20202;-55
2021/01/29 10:33:19;;;;;;;3.35;1.35;;;;;;;-0.19;59.60;99164.06;5138266;27;20542;-52
2021/01/29 10:35:55;;;;;;;4.75;1.17;;;;;;;-0.27;60.91;99155.09;5139399;27;20226;-55
2021/01/29 10:38:28;;;;;;;8.40;1.60;;;;;;;-0.39;58.86;99147.66;5137998;27;20556;-57
2021/01/29 10:41:01;;;;;;;4.30;1.40;;;;;;;-0.17;59.26;99149.81;5139602;27;20612;-54
2021/01/29 10:43:34;;;;;;;4.78;1.40;;;;;;;-0.25;58.37;99157.75;5137987;27;20322;-57
2021/01/29 10:46:16;;;;;;;4.38;2.00;;;;;;;-0.33;58.72;99157.28;5139426;27;20219;-55
2021/01/29 10:48:53;;;;;;;4.28;1.30;;;;;;;-0.31;59.81;99153.19;5138084;27;20246;-55
2021/01/29 10:51:31;;;;;;;3.88;1.27;;;;;;;-0.20;59.59;99154.69;5139275;27;20216;-53
2021/01/29 10:53:59;;;;;;;4.70;1.50;;;;;;;-0.10;58.19;99156.09;5136522;27;20239;-55
2021/01/29 10:56:29;;;;;;;8.20;1.88;;;;;;;0.10;59.40;99156.41;5137823;27;20554;-54
2021/01/29 10:58:57;;;;;;;5.20;1.60;;;;;;;-0.10;59.81;99160.31;5137099;27;20242;-56
2021/01/29 11:01:29;;;;;;;7.18;2.00;;;;;;;-0.01;58.10;99161.72;5138204;27;20207;-56
2021/01/29 11:04:03;;;;;;;7.50;1.80;;;;;;;0.01;57.96;99155.84;5136580;27;20269;-57
2021/01/29 11:06:40;;;;;;;5.03;1.60;;;;;;;-0.19;59.13;99156.44;5138592;27;20220;-55
2021/01/29 11:09:14;;;;;;;9.68;1.50;;;;;;;-0.24;58.90;99156.94;5137785;27;20292;-56
2021/01/29 11:11:43;;;;;;;3.97;1.65;;;;;;;-0.11;58.08;99154.34;5138345;27;20199;-53
2021/01/29 11:14:19;;;;;;;5.05;1.20;;;;;;;-0.31;57.84;99146.44;5136523;27;20234;-53
2021/01/29 11:16:48;;;;;;;2.95;1.10;;;;;;;-0.23;57.96;99154.50;5138464;27;20314;-54
2021/01/29 11:19:21;;;;;;;5.70;2.05;;;;;;;-0.32;57.67;99143.81;5137994;27;20318;-53
2021/01/29 11:22:15;;;;;;;5.28;1.73;;;;;;;-0.43;57.49;99151.66;5136897;27;20203;-58
2021/01/29 11:25:07;;;;;;;6.55;2.10;;;;;;;-0.22;58.67;99151.19;5137539;27;20203;-54
2021/01/29 11:27:36;;;;;;;3.30;1.20;;;;;;;-0.17;57.45;99149.81;5136885;27;20238;-53
2021/01/29 11:30:09;;;;;;;9.10;2.47;;;;;;;-0.16;56.46;99154.09;5138087;27;20203;-53
2021/01/29 11:32:39;;;;;;;3.92;1.83;;;;;;;-0.35;57.36;99148.72;5136529;27;20231;-55
2021/01/29 11:35:16;;;;;;;4.80;2.25;;;;;;;-0.53;58.11;99141.75;5138114;27;20281;-56
2021/01/29 11:38:03;;;;;;;2.78;1.35;;;;;;;-0.71;58.31;99146.59;5136136;27;20233;-56
2021/01/29 11:40:32;;;;;;;8.32;1.58;;;;;;;-0.66;57.85;99142.69;5137101;27;20206;-50
2021/01/29 11:43:03;;;;;;;3.33;1.52;;;;;;;-0.59;58.58;99143.91;5136198;27;20242;-57
2021/01/29 11:45:31;;;;;;;5.38;1.50;;;;;;;-0.63;59.28;99140.31;5138040;27;20205;-57
2021/01/29 11:48:07;;;;;;;5.07;1.80;;;;;;;-0.56;59.35;99141.59;5135602;27;20308;-53
2021/01/29 11:50:37;;;;;;;8.20;1.92;;;;;;;-0.64;60.34;99141.09;5137972;27;20293;-57
2021/01/29 11:53:08;;;;;;;3.88;1.42;;;;;;;-0.73;60.63;99145.59;5135884;27;20245;-53
2021/01/29 11:55:41;;;;;;;5.85;2.22;;;;;;;-0.87;61.53;99149.84;5137521;27;20194;-56
2021/01/29 11:58:12;;;;;;;6.13;1.90;;;;;;;-0.79;61.89;99148.66;5136707;27;20239;-57
2021/01/29 12:00:44;;;;;;;5.38;1.75;;;;;;;-0.97;62.44;99146.72;5138058;27;20304;-54
2021/01/29 12:03:17;;;;;;;4.68;1.60;;;;;;;-0.97;62.51;99154.31;5137086;27;20632;-58
2021/01/29 12:05:50;;;;;;;4.80;1.30;;;;;;;-1.02;62.09;99145.56;5137905;27;20245;-55
2021/01/29 12:08:40;;;;;;;10.50;2.20;;;;;;;-0.94;61.58;99152.78;5136414;27;20658;-53
2021/01/29 12:11:13;;;;;;;4.60;1.70;;;;;;;-0.95;61.98;99151.91;5127128;27;20294;-56
2021/01/29 12:13:44;;;;;;;5.00;1.73;;;;;;;-0.96;61.89;99145.94;5136391;27;20242;-54